Wetterstation Vordersexau
Wetterdaten: Woche 22.07.13 - 28.07.13 (KW30)
Datum Zeit Temp. A. Feuchte A. Luftdruck Regen Wind Richtung Taupunkt Windchill Windben
22.07.2013 00:00 19,6 C 73 % 1015,2 hPa 0,0 l/m 0,0 km/h O-NO 14,6 C 19,6 C 0,0 km/h
22.07.2013 01:00 18,2 C 78 % 1015,1 hPa 0,0 l/m 0,0 km/h S-SO 14,3 C 18,2 C 0,0 km/h
22.07.2013 02:00 17,3 C 79 % 1015,0 hPa 0,0 l/m 0,0 km/h O-SO 13,6 C 17,3 C 0,0 km/h
22.07.2013 03:00 17,1 C 80 % 1015,0 hPa 0,0 l/m 0,0 km/h O-SO 13,6 C 17,1 C 0,0 km/h
22.07.2013 04:00 15,9 C 81 % 1015,2 hPa 0,0 l/m 0,0 km/h SO 12,6 C 15,9 C 0,0 km/h
22.07.2013 05:00 16,2 C 81 % 1015,1 hPa 0,0 l/m 0,0 km/h O-SO 12,9 C 16,2 C 0,0 km/h
22.07.2013 06:00 16,1 C 81 % 1015,3 hPa 0,0 l/m 0,0 km/h S-SO 12,8 C 16,1 C 0,0 km/h
22.07.2013 07:00 17,3 C 81 % 1015,5 hPa 0,0 l/m 0,0 km/h SO 14,0 C 17,3 C 0,0 km/h
22.07.2013 08:00 26,3 C 61 % 1015,5 hPa 0,0 l/m 0,0 km/h S-SW 18,2 C 26,3 C 0,0 km/h
22.07.2013 09:00 31,8 C 46 % 1015,5 hPa 0,0 l/m 0,0 km/h O-NO 18,7 C 31,8 C 0,0 km/h
22.07.2013 10:00 33,1 C 42 % 1015,1 hPa 0,0 l/m 0,0 km/h O-NO 18,4 C 33,1 C 0,0 km/h
22.07.2013 11:00 35,4 C 35 % 1015,2 hPa 0,0 l/m 0,0 km/h N 17,6 C 35,4 C 0,0 km/h
22.07.2013 12:00 34,2 C 38 % 1014,7 hPa 0,0 l/m 0,6 km/h N 17,8 C 34,2 C 0,4 km/h
22.07.2013 13:00 35,3 C 34 % 1014,3 hPa 0,0 l/m 2,6 km/h SW 17,0 C 35,3 C 1,4 km/h
22.07.2013 14:00 35,3 C 35 % 1014,0 hPa 0,0 l/m 0,0 km/h N 17,5 C 35,3 C 0,0 km/h
22.07.2013 15:00 38,3 C 29 % 1013,4 hPa 0,0 l/m 18,1 km/h O-NO 17,1 C 38,3 C 10,1 km/h
22.07.2013 16:00 40,1 C 25 % 1013,1 hPa 0,0 l/m 1,3 km/h S 16,3 C 40,1 C 0,7 km/h
22.07.2013 17:00 42,9 C 19 % 1012,7 hPa 0,0 l/m 0,0 km/h NO 14,3 C 42,9 C 0,0 km/h
22.07.2013 18:00 38,4 C 26 % 1012,1 hPa 0,0 l/m 2,6 km/h NW 15,4 C 38,4 C 1,4 km/h
22.07.2013 19:00 38,3 C 26 % 1012,2 hPa 0,0 l/m 5,2 km/h N 15,4 C 38,3 C 2,9 km/h
22.07.2013 20:00 30,3 C 39 % 1012,1 hPa 0,0 l/m 0,0 km/h O-NO 14,8 C 30,3 C 0,0 km/h
22.07.2013 21:00 24,8 C 57 % 1012,4 hPa 0,0 l/m 0,0 km/h O 15,7 C 24,8 C 0,0 km/h
22.07.2013 22:00 22,3 C 65 % 1013,1 hPa 0,0 l/m 0,0 km/h O-NO 15,4 C 22,3 C 0,0 km/h
22.07.2013 23:00 20,6 C 70 % 1012,8 hPa 0,0 l/m 0,0 km/h SO 14,9 C 20,6 C 0,0 km/h
23.07.2013 00:00 19,9 C 73 % 1012,9 hPa 0,0 l/m 0,0 km/h O-SO 14,9 C 19,9 C 0,0 km/h
23.07.2013 01:00 19,0 C 75 % 1012,9 hPa 0,0 l/m 0,0 km/h S-SO 14,5 C 19,0 C 0,0 km/h
23.07.2013 02:00 18,5 C 76 % 1012,6 hPa 0,0 l/m 2,6 km/h O-SO 14,2 C 18,5 C 1,4 km/h
23.07.2013 03:00 17,3 C 78 % 1012,3 hPa 0,0 l/m 0,0 km/h S 13,4 C 17,3 C 0,0 km/h
23.07.2013 04:00 16,4 C 80 % 1011,8 hPa 0,0 l/m 0,0 km/h O 12,9 C 16,4 C 0,0 km/h
23.07.2013 05:00 16,4 C 81 % 1011,7 hPa 0,0 l/m 0,0 km/h O-SO 13,1 C 16,4 C 0,0 km/h
23.07.2013 06:00 16,3 C 81 % 1012,0 hPa 0,0 l/m 0,0 km/h S-SO 13,0 C 16,3 C 0,0 km/h
23.07.2013 07:00 18,3 C 80 % 1011,9 hPa 0,0 l/m 0,0 km/h O-NO 14,8 C 18,3 C 0,0 km/h
23.07.2013 08:00 25,3 C 64 % 1012,2 hPa 0,0 l/m 0,0 km/h SW 18,0 C 25,3 C 0,0 km/h
23.07.2013 09:00 30,2 C 49 % 1012,4 hPa 0,0 l/m 0,0 km/h NO 18,3 C 30,2 C 0,0 km/h
23.07.2013 10:00 32,6 C 43 % 1012,4 hPa 0,0 l/m 0,0 km/h N-NO 18,4 C 32,6 C 0,0 km/h
23.07.2013 11:00 34,2 C 41 % 1012,2 hPa 0,0 l/m 0,0 km/h N 19,0 C 34,2 C 0,0 km/h
23.07.2013 12:00 33,6 C 42 % 1012,0 hPa 0,0 l/m 0,0 km/h N 18,9 C 33,6 C 0,0 km/h
23.07.2013 13:00 34,8 C 38 % 1011,5 hPa 0,0 l/m 0,0 km/h N 18,3 C 34,8 C 0,0 km/h
23.07.2013 14:00 35,2 C 34 % 1011,0 hPa 0,0 l/m 9,7 km/h N 16,9 C 35,2 C 5,4 km/h
23.07.2013 15:00 37,2 C 33 % 1010,7 hPa 0,0 l/m 4,5 km/h N-NW 18,2 C 37,2 C 2,5 km/h
23.07.2013 16:00 31,9 C 45 % 1010,8 hPa 0,0 l/m 5,8 km/h NO 18,5 C 31,9 C 3,2 km/h
23.07.2013 17:00 31,8 C 47 % 1010,8 hPa 0,0 l/m 0,0 km/h S-SO 19,1 C 31,8 C 0,0 km/h
23.07.2013 18:00 32,3 C 43 % 1010,6 hPa 0,0 l/m 3,2 km/h N-NO 18,1 C 32,3 C 1,8 km/h
23.07.2013 19:00 27,5 C 58 % 1011,5 hPa 0,0 l/m 15,6 km/h S 18,5 C 26,3 C 8,6 km/h
23.07.2013 20:00 25,4 C 61 % 1010,9 hPa 0,0 l/m 2,6 km/h N 17,3 C 25,4 C 1,4 km/h
23.07.2013 21:00 23,6 C 63 % 1011,7 hPa 0,0 l/m 0,0 km/h S 16,1 C 23,6 C 0,0 km/h
23.07.2013 22:00 21,5 C 72 % 1012,3 hPa 0,0 l/m 0,0 km/h O-NO 16,2 C 21,5 C 0,0 km/h
23.07.2013 23:00 20,3 C 75 % 1012,2 hPa 0,0 l/m 0,0 km/h O-NO 15,7 C 20,3 C 0,0 km/h
24.07.2013 00:00 19,8 C 76 % 1012,3 hPa 0,0 l/m 0,0 km/h O-NO 15,4 C 19,8 C 0,0 km/h
24.07.2013 01:00 18,9 C 79 % 1011,6 hPa 0,0 l/m 0,0 km/h NO 15,2 C 18,9 C 0,0 km/h
24.07.2013 02:00 18,1 C 80 % 1011,9 hPa 0,0 l/m 0,0 km/h SO 14,6 C 18,1 C 0,0 km/h
24.07.2013 03:00 17,0 C 81 % 1012,3 hPa 0,0 l/m 0,0 km/h O-SO 13,7 C 17,0 C 0,0 km/h
24.07.2013 04:00 16,6 C 81 % 1012,3 hPa 0,0 l/m 0,0 km/h O-NO 13,3 C 16,6 C 0,0 km/h
24.07.2013 05:00 15,8 C 79 % 1012,8 hPa 0,0 l/m 0,0 km/h O-NO 12,2 C 15,8 C 0,0 km/h
24.07.2013 06:00 17,0 C 78 % 1013,3 hPa 0,0 l/m 0,0 km/h O-SO 13,1 C 17,0 C 0,0 km/h
24.07.2013 07:00 18,7 C 81 % 1013,6 hPa 0,0 l/m 0,0 km/h NW 15,4 C 18,7 C 0,0 km/h
24.07.2013 08:00 26,3 C 62 % 1014,0 hPa 0,0 l/m 13,6 km/h W 18,4 C 25,1 C 7,6 km/h
24.07.2013 09:00 22,6 C 70 % 1014,2 hPa 0,0 l/m 0,0 km/h N-NW 16,8 C 22,6 C 0,0 km/h
24.07.2013 10:00 22,5 C 73 % 1014,8 hPa 0,0 l/m 0,0 km/h N-NW 17,4 C 22,5 C 0,0 km/h
24.07.2013 11:00 23,8 C 70 % 1014,8 hPa 0,0 l/m 5,8 km/h NW 18,0 C 23,8 C 3,2 km/h
24.07.2013 12:00 25,6 C 65 % 1015,1 hPa 0,0 l/m 5,8 km/h W 18,5 C 25,6 C 3,2 km/h
24.07.2013 13:00 27,6 C 60 % 1015,1 hPa 0,0 l/m 0,0 km/h W-NW 19,1 C 27,6 C 0,0 km/h
24.07.2013 14:00 27,1 C 59 % 1014,8 hPa 0,0 l/m 11,0 km/h W-SW 18,4 C 26,3 C 6,1 km/h
24.07.2013 15:00 32,9 C 45 % 1014,4 hPa 0,0 l/m 0,6 km/h S 19,4 C 32,9 C 0,4 km/h
24.07.2013 16:00 33,6 C 44 % 1014,0 hPa 0,0 l/m 6,5 km/h S-SW 19,6 C 33,6 C 3,6 km/h
24.07.2013 17:00 37,9 C 36 % 1014,0 hPa 0,0 l/m 11,0 km/h N 20,2 C 37,9 C 6,1 km/h
24.07.2013 18:00 31,2 C 42 % 1013,5 hPa 0,0 l/m 0,6 km/h NW 16,7 C 31,2 C 0,4 km/h
24.07.2013 19:00 32,1 C 43 % 1013,4 hPa 0,0 l/m 0,0 km/h O-NO 17,9 C 32,1 C 0,0 km/h
24.07.2013 20:00 25,8 C 55 % 1013,8 hPa 0,0 l/m 0,0 km/h SO 16,1 C 25,8 C 0,0 km/h
24.07.2013 21:00 21,8 C 70 % 1013,9 hPa 0,0 l/m 0,0 km/h S-SO 16,1 C 21,8 C 0,0 km/h
24.07.2013 22:00 20,0 C 76 % 1014,2 hPa 0,0 l/m 0,0 km/h S-SO 15,6 C 20,0 C 0,0 km/h
24.07.2013 23:00 19,6 C 78 % 1014,7 hPa 0,0 l/m 0,0 km/h S-SO 15,7 C 19,6 C 0,0 km/h
25.07.2013 00:00 18,9 C 80 % 1014,7 hPa 0,0 l/m 0,0 km/h S-SO 15,4 C 18,9 C 0,0 km/h
25.07.2013 01:00 18,3 C 80 % 1014,7 hPa 0,0 l/m 0,0 km/h S 14,8 C 18,3 C 0,0 km/h
25.07.2013 02:00 18,1 C 81 % 1014,6 hPa 0,0 l/m 0,0 km/h S-SO 14,8 C 18,1 C 0,0 km/h
25.07.2013 03:00 17,9 C 81 % 1014,4 hPa 0,0 l/m 0,0 km/h O-SO 14,6 C 17,9 C 0,0 km/h
25.07.2013 04:00 17,4 C 81 % 1014,3 hPa 0,0 l/m 0,0 km/h SO 14,1 C 17,4 C 0,0 km/h
25.07.2013 05:00 16,4 C 80 % 1014,4 hPa 0,0 l/m 0,0 km/h O-SO 12,9 C 16,4 C 0,0 km/h
25.07.2013 06:00 15,9 C 79 % 1014,7 hPa 0,0 l/m 0,0 km/h S-SO 12,3 C 15,9 C 0,0 km/h
25.07.2013 07:00 17,5 C 79 % 1014,8 hPa 0,0 l/m 0,0 km/h S-SO 13,8 C 17,5 C 0,0 km/h
25.07.2013 08:00 25,9 C 65 % 1014,8 hPa 0,0 l/m 0,0 km/h N-NO 18,8 C 25,9 C 0,0 km/h
25.07.2013 09:00 26,2 C 64 % 1015,1 hPa 0,0 l/m 0,0 km/h W 18,8 C 26,2 C 0,0 km/h
25.07.2013 10:00 33,2 C 46 % 1014,8 hPa 0,0 l/m 0,0 km/h W-NW 20,0 C 33,2 C 0,0 km/h
25.07.2013 11:00 34,3 C 43 % 1014,9 hPa 0,0 l/m 8,4 km/h W-NW 19,9 C 34,3 C 4,7 km/h
25.07.2013 12:00 30,2 C 51 % 1014,7 hPa 0,0 l/m 4,5 km/h NW 18,9 C 30,2 C 2,5 km/h
25.07.2013 13:00 32,4 C 44 % 1014,1 hPa 0,0 l/m 14,3 km/h W-SW 18,5 C 32,3 C 7,9 km/h
25.07.2013 14:00 33,8 C 41 % 1013,9 hPa 0,0 l/m 12,3 km/h W-NW 18,7 C 33,8 C 6,8 km/h
25.07.2013 15:00 35,4 C 38 % 1013,5 hPa 0,0 l/m 9,1 km/h N 18,9 C 35,4 C 5,0 km/h
25.07.2013 16:00 36,8 C 37 % 1013,1 hPa 0,0 l/m 0,0 km/h NO 19,7 C 36,8 C 0,0 km/h
25.07.2013 17:00 32,3 C 44 % 1013,2 hPa 0,0 l/m 0,0 km/h N 18,5 C 32,3 C 0,0 km/h
25.07.2013 18:00 33,9 C 41 % 1013,5 hPa 0,0 l/m 16,2 km/h S-SO 18,8 C 33,9 C 9,0 km/h
25.07.2013 19:00 35,5 C 41 % 1013,7 hPa 0,0 l/m 0,0 km/h NO 20,2 C 35,5 C 0,0 km/h
25.07.2013 20:00 28,5 C 54 % 1013,9 hPa 0,0 l/m 0,0 km/h O-NO 18,3 C 28,5 C 0,0 km/h
25.07.2013 21:00 24,3 C 68 % 1013,9 hPa 0,0 l/m 0,0 km/h S-SO 18,0 C 24,3 C 0,0 km/h
25.07.2013 22:00 21,3 C 75 % 1014,6 hPa 0,0 l/m 0,0 km/h O 16,7 C 21,3 C 0,0 km/h
25.07.2013 23:00 20,9 C 78 % 1014,7 hPa 0,0 l/m 0,0 km/h S-SO 16,9 C 20,9 C 0,0 km/h
26.07.2013 00:00 20,1 C 79 % 1014,7 hPa 0,0 l/m 0,0 km/h SO 16,3 C 20,1 C 0,0 km/h
26.07.2013 01:00 19,8 C 79 % 1014,3 hPa 0,0 l/m 0,0 km/h S-SO 16,0 C 19,8 C 0,0 km/h
26.07.2013 02:00 19,3 C 80 % 1014,0 hPa 0,0 l/m 0,0 km/h S 15,8 C 19,3 C 0,0 km/h
26.07.2013 03:00 18,8 C 80 % 1013,6 hPa 0,0 l/m 0,0 km/h S 15,3 C 18,8 C 0,0 km/h
26.07.2013 04:00 18,7 C 81 % 1012,7 hPa 0,0 l/m 0,0 km/h SO 15,4 C 18,7 C 0,0 km/h
26.07.2013 05:00 17,1 C 81 % 1013,5 hPa 0,0 l/m 0,0 km/h O 13,8 C 17,1 C 0,0 km/h
26.07.2013 06:00 16,3 C 79 % 1013,5 hPa 0,0 l/m 0,0 km/h O-SO 12,6 C 16,3 C 0,0 km/h
26.07.2013 07:00 18,3 C 78 % 1013,3 hPa 0,0 l/m 0,0 km/h N 14,4 C 18,3 C 0,0 km/h
26.07.2013 08:00 28,5 C 62 % 1013,2 hPa 0,0 l/m 0,0 km/h W 20,5 C 28,5 C 0,0 km/h
26.07.2013 09:00 29,9 C 56 % 1013,0 hPa 0,0 l/m 0,0 km/h NW 20,1 C 29,9 C 0,0 km/h
26.07.2013 10:00 30,7 C 53 % 1013,1 hPa 0,0 l/m 10,4 km/h N 20,0 C 30,4 C 5,8 km/h
26.07.2013 11:00 34,4 C 45 % 1013,1 hPa 0,0 l/m 1,9 km/h O-NO 20,7 C 34,4 C 1,1 km/h
26.07.2013 12:00 34,1 C 45 % 1012,9 hPa 0,0 l/m 5,8 km/h W-SW 20,4 C 34,1 C 3,2 km/h
26.07.2013 13:00 34,6 C 44 % 1012,4 hPa 0,0 l/m 2,6 km/h W 20,5 C 34,6 C 1,4 km/h
26.07.2013 14:00 34,8 C 42 % 1012,3 hPa 0,0 l/m 0,0 km/h NO 20,0 C 34,8 C 0,0 km/h
26.07.2013 15:00 40,1 C 32 % 1011,5 hPa 0,0 l/m 7,1 km/h O-NO 20,2 C 40,1 C 4,0 km/h
26.07.2013 16:00 38,0 C 33 % 1011,1 hPa 0,0 l/m 6,5 km/h O-NO 18,9 C 38,0 C 3,6 km/h
26.07.2013 17:00 39,3 C 34 % 1010,9 hPa 0,0 l/m 0,0 km/h W-NW 20,5 C 39,3 C 0,0 km/h
26.07.2013 18:00 39,9 C 30 % 1010,4 hPa 0,0 l/m 0,0 km/h W-NW 19,0 C 39,9 C 0,0 km/h
26.07.2013 19:00 35,9 C 38 % 1010,0 hPa 0,0 l/m 0,0 km/h SO 19,3 C 35,9 C 0,0 km/h
26.07.2013 20:00 30,9 C 49 % 1010,0 hPa 0,0 l/m 0,0 km/h S-SO 18,9 C 30,9 C 0,0 km/h
26.07.2013 21:00 26,0 C 60 % 1010,2 hPa 0,0 l/m 0,0 km/h S-SW 17,6 C 26,0 C 0,0 km/h
26.07.2013 22:00 23,8 C 66 % 1010,3 hPa 0,0 l/m 0,0 km/h O-NO 17,1 C 23,8 C 0,0 km/h
26.07.2013 23:00 22,3 C 71 % 1010,3 hPa 0,0 l/m 0,0 km/h O-NO 16,8 C 22,3 C 0,0 km/h
27.07.2013 00:00 21,5 C 75 % 1010,1 hPa 0,0 l/m 1,9 km/h O-NO 16,9 C 21,5 C 1,1 km/h
27.07.2013 01:00 21,3 C 76 % 1010,1 hPa 0,0 l/m 0,0 km/h NO 16,9 C 21,3 C 0,0 km/h
27.07.2013 02:00 20,6 C 77 % 1010,2 hPa 0,0 l/m 0,0 km/h S-SO 16,4 C 20,6 C 0,0 km/h
27.07.2013 03:00 19,3 C 80 % 1010,4 hPa 0,0 l/m 0,0 km/h O-SO 15,8 C 19,3 C 0,0 km/h
27.07.2013 04:00 19,2 C 80 % 1010,2 hPa 0,0 l/m 0,0 km/h S-SW 15,7 C 19,2 C 0,0 km/h
27.07.2013 05:00 18,4 C 81 % 1010,3 hPa 0,0 l/m 0,0 km/h O 15,1 C 18,4 C 0,0 km/h
27.07.2013 06:00 18,5 C 81 % 1009,9 hPa 0,0 l/m 0,0 km/h S 15,2 C 18,5 C 0,0 km/h
27.07.2013 07:00 20,3 C 79 % 1009,5 hPa 0,0 l/m 9,1 km/h N-NO 16,5 C 19,3 C 5,0 km/h
27.07.2013 08:00 27,9 C 61 % 1009,7 hPa 0,0 l/m 0,0 km/h N-NW 19,7 C 27,9 C 0,0 km/h
27.07.2013 09:00 31,6 C 50 % 1009,7 hPa 0,0 l/m 0,0 km/h W-NW 19,9 C 31,6 C 0,0 km/h
27.07.2013 10:00 33,5 C 46 % 1009,6 hPa 0,0 l/m 2,6 km/h N-NO 20,3 C 33,5 C 1,4 km/h
27.07.2013 11:00 36,9 C 41 % 1009,5 hPa 0,0 l/m 0,0 km/h W-SW 21,4 C 36,9 C 0,0 km/h
27.07.2013 12:00 34,8 C 43 % 1008,9 hPa 0,0 l/m 1,9 km/h W-NW 20,3 C 34,8 C 1,1 km/h
27.07.2013 13:00 37,4 C 37 % 1008,5 hPa 0,0 l/m 2,6 km/h N-NO 20,2 C 37,4 C 1,4 km/h
27.07.2013 14:00 38,4 C 33 % 1007,9 hPa 0,0 l/m 0,0 km/h W 19,2 C 38,4 C 0,0 km/h
27.07.2013 15:00 40,8 C 26 % 1007,0 hPa 0,0 l/m 11,0 km/h N-NW 17,5 C 40,8 C 6,1 km/h
27.07.2013 16:00 42,8 C 24 % 1006,1 hPa 0,0 l/m 9,7 km/h NW 17,9 C 42,8 C 5,4 km/h
27.07.2013 17:00 43,5 C 22 % 1005,5 hPa 0,0 l/m 7,1 km/h W-NW 17,1 C 43,5 C 4,0 km/h
27.07.2013 18:00 41,3 C 19 % 1005,0 hPa 0,0 l/m 13,0 km/h W 13,0 C 41,3 C 7,2 km/h
27.07.2013 19:00 40,4 C 23 % 1004,4 hPa 0,0 l/m 0,0 km/h O-NO 15,2 C 40,4 C 0,0 km/h
27.07.2013 20:00 32,6 C 35 % 1004,3 hPa 0,0 l/m 0,0 km/h O-NO 15,1 C 32,6 C 0,0 km/h
27.07.2013 21:00 27,3 C 46 % 1004,7 hPa 0,0 l/m 0,0 km/h O-SO 14,6 C 27,3 C 0,0 km/h
27.07.2013 22:00 24,5 C 55 % 1005,0 hPa 0,0 l/m 0,0 km/h S-SW 14,9 C 24,5 C 0,0 km/h
27.07.2013 23:00 22,3 C 71 % 1006,0 hPa 1,0 l/m 16,2 km/h NO 16,8 C 19,8 C 9,0 km/h
28.07.2013 00:00 21,1 C 79 % 1008,4 hPa 4,7 l/m 0,0 km/h NO 17,3 C 21,1 C 0,0 km/h
28.07.2013 01:00 20,9 C 78 % 1007,9 hPa 0,0 l/m 0,0 km/h S 16,9 C 20,9 C 0,0 km/h
28.07.2013 02:00 20,6 C 77 % 1008,8 hPa 0,5 l/m 8,4 km/h NO 16,4 C 19,8 C 4,7 km/h
28.07.2013 03:00 20,3 C 76 % 1009,5 hPa 0,5 l/m 0,0 km/h S 15,9 C 20,3 C 0,0 km/h
28.07.2013 04:00 19,9 C 73 % 1009,2 hPa 0,0 l/m 2,6 km/h S 14,9 C 19,9 C 1,4 km/h
28.07.2013 05:00 19,5 C 74 % 1010,4 hPa 0,0 l/m 3,2 km/h O-NO 14,7 C 19,5 C 1,8 km/h
28.07.2013 06:00 19,4 C 73 % 1009,4 hPa 0,0 l/m 0,0 km/h SO 14,4 C 19,4 C 0,0 km/h
28.07.2013 07:00 19,9 C 76 % 1009,9 hPa 0,0 l/m 0,0 km/h O-NO 15,5 C 19,9 C 0,0 km/h
28.07.2013 08:00 20,4 C 80 % 1010,1 hPa 0,0 l/m 0,0 km/h S-SO 16,8 C 20,4 C 0,0 km/h
28.07.2013 09:00 22,4 C 81 % 1010,1 hPa 0,0 l/m 6,5 km/h S-SO 19,0 C 22,4 C 3,6 km/h
28.07.2013 10:00 24,0 C 76 % 1010,1 hPa 0,0 l/m 0,0 km/h W-NW 19,5 C 24,0 C 0,0 km/h
28.07.2013 11:00 32,9 C 54 % 1010,3 hPa 0,0 l/m 0,0 km/h N-NW 22,3 C 32,9 C 0,0 km/h
28.07.2013 12:00 32,5 C 49 % 1009,8 hPa 0,0 l/m 7,8 km/h NO 20,4 C 32,5 C 4,3 km/h
28.07.2013 13:00 32,4 C 45 % 1009,6 hPa 0,0 l/m 0,6 km/h N 18,9 C 32,4 C 0,4 km/h
28.07.2013 14:00 32,0 C 48 % 1009,7 hPa 0,0 l/m 4,5 km/h NO 19,6 C 32,0 C 2,5 km/h
28.07.2013 15:00 26,1 C 60 % 1010,7 hPa 0,0 l/m 1,9 km/h O-NO 17,7 C 26,1 C 1,1 km/h
28.07.2013 16:00 22,7 C 76 % 1012,4 hPa 1,0 l/m 0,0 km/h O-NO 18,2 C 22,7 C 0,0 km/h
28.07.2013 17:00 22,4 C 77 % 1012,5 hPa 2,1 l/m 0,0 km/h NO 18,2 C 22,4 C 0,0 km/h
28.07.2013 18:00 21,2 C 80 % 1014,0 hPa 1,0 l/m 5,2 km/h O-NO 17,6 C 21,2 C 2,9 km/h
28.07.2013 19:00 21,6 C 80 % 1013,0 hPa 0,0 l/m 0,0 km/h S-SO 18,0 C 21,6 C 0,0 km/h
28.07.2013 20:00 21,3 C 79 % 1013,1 hPa 0,0 l/m 4,5 km/h SO 17,5 C 21,3 C 2,5 km/h
28.07.2013 21:00 18,6 C 80 % 1013,3 hPa 0,0 l/m 0,0 km/h O-NO 15,1 C 18,6 C 0,0 km/h
28.07.2013 22:00 18,1 C 78 % 1013,9 hPa 1,0 l/m 0,0 km/h SO 14,2 C 18,1 C 0,0 km/h
28.07.2013 23:00 17,5 C 75 % 1013,0 hPa 1,0 l/m 0,0 km/h S-SO 13,0 C 17,5 C 0,0 km/h
Min-Datum _ 24.07.13 22.07.13 27.07.13 - 22.07.13 - 24.07.13 24.07.13 22.07.13
_ Min-Zeit 05:19 17:19 20:19 - 00:19 - 05:19 05:19 00:19
Minimum _ 15,8 C 19 % 1004,3 hPa - 0,0 km/h - 12,2 C 15,8 C 0,0 km/h
Max-Datum _ 27.07.13 22.07.13 22.07.13 28.07.13 22.07.13 - 28.07.13 27.07.13 22.07.13
_ Max-Zeit 17:19 04:19 07:19 00:19 15:19 - 11:19 17:19 15:19
Maximum _ 43,5 C 81 % 1015,5 hPa 4,7 l/m 18,1 km/h
O-NO
- 22,3 C 43,5 C 10,1 km/h
O-NO
Durchschnitt _ 26,3 C 60 % 1012,1 hPa #13,0 l/m 2,1 km/h O-NO 16,9 C 26,2 C 1,2 km/h
www.sexauwetter.de